AWW526B LGKR-EGFF
Flight info
| Callsign | AWW526B |
|---|---|
| Flight time | 3h 24m |
| Altitude | 38000 |
| Route | OLGAT DCT CRAYE DCT GISAM DCT RILIM DCT UMSON DCT MINTU DCT PUL DCT PEVAL DCT MOBDO DCT SOTOV P66 KPT DCT TEDGO DCT LIRSU DCT ARCKY DCT SPI DCT DENUT L610 KOPUL Q63 ICTAM |
| Aircraft | A319/M-SDE3FGHIRWY/LB1 |
Departure
| Time | 2026-04-27 17:33 |
|---|---|
| Airport | Corfu Ioannis Kapodistrias International Airport (LGKR) |
Arrival
| Time | 2026-04-27 20:58 |
|---|---|
| Airport | Cardiff International Airport (EGFF) |
| Time | Latitude | Longitude | Altitude | Speed | Heading |
|---|---|---|---|---|---|
| 2026-04-27 17:18 | 39.60934 | 19.91242 | 18 ft | 0 kts | 79° |
| 2026-04-27 17:27 | 39.60934 | 19.91236 | 18 ft | 2 kts | 78° |
| 2026-04-27 17:27 | 39.60929 | 19.91212 | 20 ft | 3 kts | 72° |
| 2026-04-27 17:28 | 39.60922 | 19.91188 | 21 ft | 3 kts | 59° |
| 2026-04-27 17:28 | 39.60915 | 19.91174 | 20 ft | 3 kts | 39° |
| 2026-04-27 17:28 | 39.60898 | 19.91165 | 19 ft | 0 kts | 348° |
| 2026-04-27 17:30 | 39.60899 | 19.91165 | 19 ft | 1 kts | 348° |
| 2026-04-27 17:31 | 39.60928 | 19.91157 | 19 ft | 8 kts | 348° |
| 2026-04-27 17:31 | 39.61001 | 19.91138 | 19 ft | 13 kts | 348° |
| 2026-04-27 17:31 | 39.61050 | 19.91077 | 19 ft | 11 kts | 256° |
| 2026-04-27 17:31 | 39.61007 | 19.91008 | 19 ft | 10 kts | 195° |
| 2026-04-27 17:32 | 39.60982 | 19.91010 | 19 ft | 0 kts | 166° |
| 2026-04-27 17:32 | 39.60968 | 19.91013 | 19 ft | 2 kts | 168° |
| 2026-04-27 17:32 | 39.60777 | 19.91062 | 19 ft | 64 kts | 169° |
| 2026-04-27 17:33 | 39.60127 | 19.91229 | 22 ft | 123 kts | 168° |
| 2026-04-27 17:33 | 39.59148 | 19.91478 | 217 ft | 148 kts | 169° |
| 2026-04-27 17:33 | 39.58172 | 19.91716 | 803 ft | 142 kts | 169° |
| 2026-04-27 17:33 | 39.57198 | 19.91986 | 1281 ft | 144 kts | 168° |
| 2026-04-27 17:34 | 39.56207 | 19.92259 | 1741 ft | 151 kts | 168° |
| 2026-04-27 17:34 | 39.55243 | 19.92916 | 1943 ft | 173 kts | 135° |
| 2026-04-27 17:34 | 39.54358 | 19.94091 | 2224 ft | 189 kts | 135° |
| 2026-04-27 17:34 | 39.53392 | 19.95373 | 2518 ft | 211 kts | 135° |
| 2026-04-27 17:35 | 39.52335 | 19.96776 | 3084 ft | 220 kts | 135° |
| 2026-04-27 17:35 | 39.51265 | 19.98197 | 3910 ft | 221 kts | 136° |
| 2026-04-27 17:35 | 39.50185 | 19.99628 | 4723 ft | 223 kts | 136° |
| 2026-04-27 17:35 | 39.49094 | 20.01068 | 5492 ft | 225 kts | 136° |
| 2026-04-27 17:36 | 39.47988 | 20.02525 | 6252 ft | 228 kts | 136° |
| 2026-04-27 17:36 | 39.46871 | 20.03999 | 7004 ft | 230 kts | 135° |
| 2026-04-27 17:36 | 39.45746 | 20.05485 | 7758 ft | 232 kts | 135° |
| 2026-04-27 17:36 | 39.44615 | 20.06981 | 8546 ft | 233 kts | 135° |
| 2026-04-27 17:37 | 39.43609 | 20.08697 | 9029 ft | 251 kts | 112° |
| 2026-04-27 17:37 | 39.43417 | 20.10969 | 9664 ft | 263 kts | 81° |
| 2026-04-27 17:37 | 39.44160 | 20.13138 | 10389 ft | 271 kts | 51° |
| 2026-04-27 17:37 | 39.45696 | 20.14549 | 11069 ft | 277 kts | 18° |
| 2026-04-27 17:38 | 39.47608 | 20.14676 | 11783 ft | 280 kts | 343° |
| 2026-04-27 17:38 | 39.49271 | 20.13444 | 12531 ft | 278 kts | 310° |
| 2026-04-27 17:38 | 39.50398 | 20.11421 | 13356 ft | 277 kts | 302° |
| 2026-04-27 17:38 | 39.51451 | 20.09327 | 14150 ft | 278 kts | 302° |
| 2026-04-27 17:39 | 39.52499 | 20.07220 | 14879 ft | 279 kts | 302° |
| 2026-04-27 17:39 | 39.53550 | 20.05103 | 15602 ft | 280 kts | 302° |
| 2026-04-27 17:39 | 39.54606 | 20.02980 | 16316 ft | 281 kts | 302° |
| 2026-04-27 17:39 | 39.55670 | 20.00849 | 17022 ft | 282 kts | 302° |
| 2026-04-27 17:40 | 39.56743 | 19.98712 | 17707 ft | 284 kts | 302° |
| 2026-04-27 17:40 | 39.57820 | 19.96561 | 18378 ft | 285 kts | 302° |
| 2026-04-27 17:40 | 39.58904 | 19.94397 | 18947 ft | 287 kts | 302° |
| 2026-04-27 17:40 | 39.59997 | 19.92219 | 19501 ft | 289 kts | 302° |
| 2026-04-27 17:41 | 39.61039 | 19.89973 | 19956 ft | 296 kts | 294° |
| 2026-04-27 17:41 | 39.61519 | 19.87308 | 20077 ft | 314 kts | 272° |
| 2026-04-27 17:41 | 39.61572 | 19.84404 | 20187 ft | 330 kts | 279° |
| 2026-04-27 17:41 | 39.62422 | 19.81604 | 20323 ft | 344 kts | 304° |
| 2026-04-27 17:42 | 39.64071 | 19.79260 | 20467 ft | 360 kts | 317° |
| 2026-04-27 17:42 | 39.66049 | 19.77197 | 20818 ft | 368 kts | 322° |
| 2026-04-27 17:42 | 39.68100 | 19.75178 | 21320 ft | 372 kts | 321° |
| 2026-04-27 17:42 | 39.70115 | 19.73058 | 21857 ft | 374 kts | 318° |
| 2026-04-27 17:43 | 39.72059 | 19.70796 | 22396 ft | 376 kts | 315° |
| 2026-04-27 17:43 | 39.73934 | 19.68411 | 22938 ft | 378 kts | 314° |
| 2026-04-27 17:43 | 39.75767 | 19.65944 | 23451 ft | 381 kts | 313° |
| 2026-04-27 17:43 | 39.77588 | 19.63435 | 23899 ft | 383 kts | 312° |
| 2026-04-27 17:44 | 39.79419 | 19.60908 | 24301 ft | 385 kts | 312° |
| 2026-04-27 17:44 | 39.81270 | 19.58374 | 24705 ft | 387 kts | 313° |
| 2026-04-27 17:44 | 39.83138 | 19.55839 | 25096 ft | 389 kts | 313° |
| 2026-04-27 17:44 | 39.85025 | 19.53294 | 25489 ft | 392 kts | 313° |
| 2026-04-27 17:45 | 39.86926 | 19.50743 | 25872 ft | 393 kts | 313° |
| 2026-04-27 17:45 | 39.88839 | 19.48185 | 26241 ft | 396 kts | 313° |
| 2026-04-27 17:45 | 39.90764 | 19.45609 | 26601 ft | 398 kts | 313° |
| 2026-04-27 17:45 | 39.92703 | 19.43012 | 26954 ft | 401 kts | 313° |
| 2026-04-27 17:46 | 39.94648 | 19.40401 | 27313 ft | 403 kts | 313° |
| 2026-04-27 17:46 | 39.96606 | 19.37767 | 27681 ft | 405 kts | 313° |
| 2026-04-27 17:46 | 39.98570 | 19.35122 | 28044 ft | 407 kts | 313° |
| 2026-04-27 17:46 | 40.00520 | 19.32490 | 28397 ft | 410 kts | 313° |
| 2026-04-27 17:47 | 40.02503 | 19.29807 | 28745 ft | 412 kts | 313° |
| 2026-04-27 17:47 | 40.03849 | 19.27985 | 28977 ft | 413 kts | 313° |
| 2026-04-27 17:47 | 40.06502 | 19.24400 | 29425 ft | 416 kts | 313° |
| 2026-04-27 17:47 | 40.08521 | 19.21678 | 29756 ft | 418 kts | 313° |
| 2026-04-27 17:48 | 40.10549 | 19.18941 | 30080 ft | 420 kts | 313° |
| 2026-04-27 17:48 | 40.12583 | 19.16185 | 30359 ft | 422 kts | 313° |
| 2026-04-27 17:48 | 40.14624 | 19.13413 | 30633 ft | 424 kts | 313° |
| 2026-04-27 17:48 | 40.16671 | 19.10632 | 30907 ft | 425 kts | 313° |
| 2026-04-27 17:49 | 40.18725 | 19.07836 | 31199 ft | 426 kts | 312° |
| 2026-04-27 17:49 | 40.20779 | 19.05042 | 31544 ft | 426 kts | 312° |
| 2026-04-27 17:49 | 40.22835 | 19.02265 | 31936 ft | 424 kts | 315° |
| 2026-04-27 17:49 | 40.25111 | 18.99802 | 32316 ft | 425 kts | 323° |
| 2026-04-27 17:50 | 40.27657 | 18.97836 | 32700 ft | 426 kts | 330° |
| 2026-04-27 17:50 | 40.32909 | 18.94294 | 33455 ft | 423 kts | 330° |
| 2026-04-27 17:50 | 40.35521 | 18.92522 | 33831 ft | 422 kts | 330° |
| 2026-04-27 17:51 | 40.38127 | 18.90747 | 34185 ft | 421 kts | 330° |
| 2026-04-27 17:51 | 40.40723 | 18.88976 | 34505 ft | 420 kts | 329° |
| 2026-04-27 17:51 | 40.43313 | 18.87203 | 34834 ft | 419 kts | 329° |
| 2026-04-27 17:51 | 40.45859 | 18.85460 | 35144 ft | 418 kts | 329° |
| 2026-04-27 17:52 | 40.48435 | 18.83699 | 35425 ft | 417 kts | 329° |
| 2026-04-27 17:52 | 40.51010 | 18.81937 | 35689 ft | 417 kts | 329° |
| 2026-04-27 17:52 | 40.53582 | 18.80178 | 35943 ft | 417 kts | 329° |
| 2026-04-27 17:52 | 40.56153 | 18.78422 | 36187 ft | 416 kts | 329° |
| 2026-04-27 17:53 | 40.58721 | 18.76664 | 36408 ft | 416 kts | 329° |
| 2026-04-27 17:53 | 40.61288 | 18.74903 | 36635 ft | 416 kts | 329° |
| 2026-04-27 17:53 | 40.63857 | 18.73143 | 36846 ft | 416 kts | 329° |
| 2026-04-27 17:53 | 40.66423 | 18.71384 | 37088 ft | 415 kts | 329° |
| 2026-04-27 17:54 | 40.68982 | 18.69626 | 37313 ft | 415 kts | 329° |
| 2026-04-27 17:54 | 40.71540 | 18.67866 | 37522 ft | 414 kts | 329° |
| 2026-04-27 17:54 | 40.74093 | 18.66104 | 37721 ft | 414 kts | 329° |
| 2026-04-27 17:54 | 40.76645 | 18.64342 | 37912 ft | 414 kts | 329° |
| 2026-04-27 17:55 | 40.79199 | 18.62580 | 38058 ft | 414 kts | 329° |
| 2026-04-27 17:55 | 40.81751 | 18.60817 | 38080 ft | 414 kts | 329° |
| 2026-04-27 17:55 | 40.86849 | 18.57292 | 38076 ft | 414 kts | 329° |
| 2026-04-27 17:56 | 40.91952 | 18.53762 | 38077 ft | 414 kts | 329° |
| 2026-04-27 17:56 | 40.97052 | 18.50221 | 38076 ft | 414 kts | 329° |
| 2026-04-27 17:57 | 41.02150 | 18.46678 | 38076 ft | 414 kts | 329° |
| 2026-04-27 17:57 | 41.07213 | 18.43151 | 38078 ft | 414 kts | 329° |
| 2026-04-27 17:58 | 41.12312 | 18.39596 | 38089 ft | 414 kts | 330° |
| 2026-04-27 17:58 | 41.17414 | 18.36035 | 38089 ft | 414 kts | 330° |
| 2026-04-27 17:59 | 41.22516 | 18.32459 | 38090 ft | 415 kts | 330° |
| 2026-04-27 17:59 | 41.27618 | 18.28877 | 38091 ft | 415 kts | 330° |
| 2026-04-27 18:00 | 41.32724 | 18.25292 | 38093 ft | 415 kts | 330° |
| 2026-04-27 18:00 | 41.37829 | 18.21715 | 38094 ft | 414 kts | 330° |
| 2026-04-27 18:01 | 41.42931 | 18.18130 | 38094 ft | 415 kts | 330° |
| 2026-04-27 18:01 | 41.48027 | 18.14526 | 38092 ft | 414 kts | 330° |
| 2026-04-27 18:02 | 41.52947 | 18.10567 | 38091 ft | 413 kts | 324° |
| 2026-04-27 18:02 | 41.57729 | 18.06322 | 38095 ft | 413 kts | 324° |
| 2026-04-27 18:03 | 41.62517 | 18.02082 | 38098 ft | 413 kts | 325° |
| 2026-04-27 18:03 | 41.67300 | 17.97823 | 38094 ft | 413 kts | 325° |
| 2026-04-27 18:04 | 41.72087 | 17.93563 | 38086 ft | 413 kts | 325° |
| 2026-04-27 18:04 | 41.76867 | 17.89300 | 38085 ft | 413 kts | 324° |
| 2026-04-27 18:05 | 41.81647 | 17.85020 | 38090 ft | 413 kts | 324° |
| 2026-04-27 18:05 | 41.86429 | 17.80740 | 38099 ft | 413 kts | 325° |
| 2026-04-27 18:06 | 41.91199 | 17.76439 | 38095 ft | 413 kts | 322° |
| 2026-04-27 18:06 | 41.95545 | 17.71501 | 38091 ft | 412 kts | 317° |
| 2026-04-27 18:07 | 41.99747 | 17.66263 | 38092 ft | 412 kts | 316° |
| 2026-04-27 18:07 | 42.03930 | 17.60993 | 38092 ft | 412 kts | 316° |
| 2026-04-27 18:08 | 42.08143 | 17.55760 | 38099 ft | 412 kts | 317° |
| 2026-04-27 18:08 | 42.12370 | 17.50545 | 38097 ft | 412 kts | 317° |
| 2026-04-27 18:09 | 42.16599 | 17.45330 | 38095 ft | 412 kts | 317° |
| 2026-04-27 18:09 | 42.20820 | 17.40094 | 38095 ft | 412 kts | 317° |
| 2026-04-27 18:10 | 42.25034 | 17.34847 | 38086 ft | 412 kts | 317° |
| 2026-04-27 18:10 | 42.29248 | 17.29596 | 38088 ft | 412 kts | 317° |
| 2026-04-27 18:11 | 42.33466 | 17.24348 | 38101 ft | 412 kts | 317° |
| 2026-04-27 18:11 | 42.37685 | 17.19087 | 38100 ft | 412 kts | 317° |
| 2026-04-27 18:12 | 42.41890 | 17.13811 | 38098 ft | 412 kts | 317° |
| 2026-04-27 18:12 | 42.46097 | 17.08523 | 38097 ft | 412 kts | 317° |
| 2026-04-27 18:13 | 42.50305 | 17.03240 | 38079 ft | 412 kts | 317° |
| 2026-04-27 18:13 | 42.54513 | 16.97944 | 38083 ft | 413 kts | 317° |
| 2026-04-27 18:14 | 42.58714 | 16.92637 | 38095 ft | 413 kts | 317° |
| 2026-04-27 18:14 | 42.62883 | 16.87354 | 38094 ft | 413 kts | 317° |
| 2026-04-27 18:15 | 42.67083 | 16.82036 | 38094 ft | 413 kts | 317° |
| 2026-04-27 18:15 | 42.71279 | 16.76709 | 38095 ft | 413 kts | 317° |
| 2026-04-27 18:16 | 42.75472 | 16.71369 | 38093 ft | 413 kts | 317° |
| 2026-04-27 18:16 | 42.79666 | 16.66025 | 38091 ft | 413 kts | 317° |
| 2026-04-27 18:17 | 42.83149 | 16.61583 | 38104 ft | 413 kts | 317° |
| 2026-04-27 18:17 | 42.87331 | 16.56229 | 38101 ft | 412 kts | 317° |
| 2026-04-27 18:18 | 42.91509 | 16.50875 | 38103 ft | 412 kts | 317° |
| 2026-04-27 18:18 | 42.95681 | 16.45520 | 38100 ft | 412 kts | 317° |
| 2026-04-27 18:19 | 42.99856 | 16.40153 | 38094 ft | 412 kts | 317° |
| 2026-04-27 18:19 | 43.04019 | 16.34785 | 38079 ft | 411 kts | 317° |
| 2026-04-27 18:20 | 43.08180 | 16.29407 | 38092 ft | 412 kts | 317° |
| 2026-04-27 18:20 | 43.12341 | 16.24029 | 38091 ft | 412 kts | 317° |
| 2026-04-27 18:21 | 43.16499 | 16.18638 | 38091 ft | 412 kts | 317° |
| 2026-04-27 18:21 | 43.20654 | 16.13236 | 38092 ft | 412 kts | 316° |
| 2026-04-27 18:22 | 43.24812 | 16.07823 | 38093 ft | 412 kts | 316° |
| 2026-04-27 18:22 | 43.28936 | 16.02446 | 38095 ft | 412 kts | 316° |
| 2026-04-27 18:23 | 43.33083 | 15.97026 | 38090 ft | 412 kts | 316° |
| 2026-04-27 18:23 | 43.37231 | 15.91592 | 38092 ft | 412 kts | 316° |
| 2026-04-27 18:24 | 43.41381 | 15.86144 | 38091 ft | 412 kts | 316° |
| 2026-04-27 18:24 | 43.45525 | 15.80695 | 38093 ft | 412 kts | 316° |
| 2026-04-27 18:25 | 43.49664 | 15.75235 | 38097 ft | 412 kts | 316° |
| 2026-04-27 18:25 | 43.53803 | 15.69773 | 38106 ft | 412 kts | 316° |
| 2026-04-27 18:26 | 43.57938 | 15.64304 | 38103 ft | 412 kts | 316° |
| 2026-04-27 18:26 | 43.62073 | 15.58832 | 38094 ft | 412 kts | 316° |
| 2026-04-27 18:27 | 43.66210 | 15.53343 | 38099 ft | 412 kts | 316° |
| 2026-04-27 18:27 | 43.70344 | 15.47846 | 38102 ft | 413 kts | 316° |
| 2026-04-27 18:28 | 43.74475 | 15.42332 | 38101 ft | 413 kts | 316° |
| 2026-04-27 18:28 | 43.78606 | 15.36809 | 38102 ft | 413 kts | 316° |
| 2026-04-27 18:29 | 43.82734 | 15.31283 | 38100 ft | 413 kts | 316° |
| 2026-04-27 18:29 | 43.86861 | 15.25754 | 38092 ft | 413 kts | 316° |
| 2026-04-27 18:30 | 43.90965 | 15.20252 | 38094 ft | 413 kts | 316° |
| 2026-04-27 18:30 | 43.95082 | 15.14691 | 38096 ft | 413 kts | 316° |
| 2026-04-27 18:31 | 43.99197 | 15.09123 | 38103 ft | 413 kts | 316° |
| 2026-04-27 18:31 | 44.03318 | 15.03560 | 38101 ft | 413 kts | 316° |
| 2026-04-27 18:32 | 44.07435 | 14.97983 | 38103 ft | 413 kts | 316° |
| 2026-04-27 18:32 | 44.11548 | 14.92394 | 38094 ft | 413 kts | 316° |
| 2026-04-27 18:33 | 44.15663 | 14.86803 | 38097 ft | 413 kts | 316° |
| 2026-04-27 18:33 | 44.19767 | 14.81196 | 38096 ft | 413 kts | 316° |
| 2026-04-27 18:34 | 44.23875 | 14.75578 | 38107 ft | 414 kts | 316° |
| 2026-04-27 18:34 | 44.27982 | 14.69960 | 38106 ft | 414 kts | 316° |
| 2026-04-27 18:35 | 44.32090 | 14.64337 | 38104 ft | 414 kts | 316° |
| 2026-04-27 18:35 | 44.36193 | 14.58692 | 38104 ft | 414 kts | 315° |
| 2026-04-27 18:36 | 44.40260 | 14.53084 | 38104 ft | 414 kts | 315° |
| 2026-04-27 18:36 | 44.44363 | 14.47427 | 38103 ft | 413 kts | 315° |
| 2026-04-27 18:37 | 44.48454 | 14.41775 | 38113 ft | 413 kts | 315° |
| 2026-04-27 18:37 | 44.52542 | 14.36110 | 38099 ft | 413 kts | 315° |
| 2026-04-27 18:38 | 44.56622 | 14.30430 | 38102 ft | 413 kts | 315° |
| 2026-04-27 18:38 | 44.60700 | 14.24743 | 38104 ft | 413 kts | 315° |
| 2026-04-27 18:39 | 44.64775 | 14.19059 | 38103 ft | 413 kts | 315° |
| 2026-04-27 18:39 | 44.68846 | 14.13370 | 38102 ft | 413 kts | 315° |
| 2026-04-27 18:40 | 44.72920 | 14.07667 | 38099 ft | 413 kts | 315° |
| 2026-04-27 18:40 | 44.76987 | 14.01953 | 38096 ft | 413 kts | 315° |
| 2026-04-27 18:41 | 44.81050 | 13.96234 | 38095 ft | 413 kts | 315° |
| 2026-04-27 18:41 | 44.85114 | 13.90514 | 38095 ft | 413 kts | 315° |
| 2026-04-27 18:42 | 44.88486 | 13.85748 | 38094 ft | 413 kts | 315° |
| 2026-04-27 18:42 | 44.93222 | 13.79029 | 38086 ft | 413 kts | 315° |
| 2026-04-27 18:43 | 44.97276 | 13.73284 | 38100 ft | 413 kts | 315° |
| 2026-04-27 18:43 | 45.01323 | 13.67525 | 38104 ft | 413 kts | 315° |
| 2026-04-27 18:44 | 45.05370 | 13.61756 | 38104 ft | 413 kts | 315° |
| 2026-04-27 18:44 | 45.09412 | 13.55988 | 38100 ft | 413 kts | 315° |
| 2026-04-27 18:45 | 45.13454 | 13.50214 | 38095 ft | 412 kts | 315° |
| 2026-04-27 18:45 | 45.17486 | 13.44427 | 38094 ft | 412 kts | 315° |
| 2026-04-27 18:46 | 45.21484 | 13.38674 | 38110 ft | 412 kts | 315° |
| 2026-04-27 18:46 | 45.25504 | 13.32889 | 38106 ft | 411 kts | 315° |
| 2026-04-27 18:47 | 45.29519 | 13.27097 | 38104 ft | 411 kts | 314° |
| 2026-04-27 18:47 | 45.33595 | 13.21412 | 38089 ft | 411 kts | 317° |
| 2026-04-27 18:48 | 45.37890 | 13.16067 | 38090 ft | 410 kts | 319° |
| 2026-04-27 18:48 | 45.42243 | 13.10772 | 38100 ft | 410 kts | 319° |
| 2026-04-27 18:49 | 45.46513 | 13.05434 | 38097 ft | 409 kts | 318° |
| 2026-04-27 18:49 | 45.50759 | 13.00039 | 38092 ft | 408 kts | 318° |
| 2026-04-27 18:50 | 45.54994 | 12.94653 | 38081 ft | 408 kts | 318° |
| 2026-04-27 18:50 | 45.59222 | 12.89264 | 38083 ft | 407 kts | 318° |
| 2026-04-27 18:51 | 45.63450 | 12.83881 | 38080 ft | 407 kts | 318° |
| 2026-04-27 18:51 | 45.67675 | 12.78505 | 38093 ft | 406 kts | 317° |
| 2026-04-27 18:52 | 45.71866 | 12.73161 | 38085 ft | 406 kts | 317° |
| 2026-04-27 18:53 | 45.78175 | 12.65066 | 38069 ft | 406 kts | 317° |
| 2026-04-27 18:53 | 45.82375 | 12.59657 | 38071 ft | 406 kts | 317° |
| 2026-04-27 18:54 | 45.86586 | 12.54253 | 38075 ft | 406 kts | 317° |
| 2026-04-27 18:54 | 45.90789 | 12.48839 | 38097 ft | 406 kts | 317° |
| 2026-04-27 18:55 | 45.94976 | 12.43405 | 38094 ft | 405 kts | 317° |
| 2026-04-27 18:55 | 45.99153 | 12.37978 | 38091 ft | 404 kts | 317° |
| 2026-04-27 18:56 | 46.03327 | 12.32564 | 38082 ft | 403 kts | 317° |
| 2026-04-27 18:56 | 46.07492 | 12.27152 | 38084 ft | 403 kts | 317° |
| 2026-04-27 18:57 | 46.11650 | 12.21718 | 38094 ft | 403 kts | 317° |
| 2026-04-27 18:57 | 46.15801 | 12.16278 | 38110 ft | 403 kts | 317° |
| 2026-04-27 18:58 | 46.19946 | 12.10848 | 38103 ft | 402 kts | 317° |
| 2026-04-27 18:58 | 46.24086 | 12.05414 | 38105 ft | 402 kts | 317° |
| 2026-04-27 18:59 | 46.28197 | 11.99999 | 38108 ft | 402 kts | 316° |
| 2026-04-27 18:59 | 46.32323 | 11.94556 | 38105 ft | 402 kts | 316° |
| 2026-04-27 19:00 | 46.36450 | 11.89105 | 38129 ft | 401 kts | 316° |
| 2026-04-27 19:00 | 46.40565 | 11.83659 | 38126 ft | 400 kts | 316° |
| 2026-04-27 19:01 | 46.44732 | 11.78326 | 38103 ft | 400 kts | 319° |
| 2026-04-27 19:01 | 46.49114 | 11.73349 | 38092 ft | 400 kts | 321° |
| 2026-04-27 19:02 | 46.53530 | 11.68440 | 38080 ft | 400 kts | 320° |
| 2026-04-27 19:02 | 46.57903 | 11.63463 | 38071 ft | 399 kts | 320° |
| 2026-04-27 19:03 | 46.62251 | 11.58443 | 38080 ft | 399 kts | 320° |
| 2026-04-27 19:03 | 46.66591 | 11.53413 | 38072 ft | 399 kts | 319° |
| 2026-04-27 19:04 | 46.70201 | 11.49229 | 38064 ft | 399 kts | 319° |
| 2026-04-27 19:04 | 46.74545 | 11.44196 | 38072 ft | 399 kts | 319° |
| 2026-04-27 19:05 | 46.78891 | 11.39157 | 38075 ft | 399 kts | 319° |
| 2026-04-27 19:05 | 46.83231 | 11.34106 | 38114 ft | 399 kts | 319° |
| 2026-04-27 19:06 | 46.87563 | 11.29047 | 38105 ft | 398 kts | 319° |
| 2026-04-27 19:06 | 46.91888 | 11.23984 | 38099 ft | 398 kts | 319° |
| 2026-04-27 19:07 | 46.96382 | 11.19218 | 38104 ft | 401 kts | 324° |
| 2026-04-27 19:07 | 47.01109 | 11.14883 | 38116 ft | 401 kts | 324° |
| 2026-04-27 19:08 | 47.05832 | 11.10539 | 38128 ft | 401 kts | 324° |
| 2026-04-27 19:08 | 47.10408 | 11.05925 | 38134 ft | 398 kts | 318° |
| 2026-04-27 19:09 | 47.14693 | 11.00795 | 38131 ft | 398 kts | 318° |
| 2026-04-27 19:09 | 47.18978 | 10.95660 | 38125 ft | 398 kts | 318° |
| 2026-04-27 19:10 | 47.23243 | 10.90551 | 38130 ft | 398 kts | 318° |
| 2026-04-27 19:10 | 47.27528 | 10.85400 | 38123 ft | 397 kts | 318° |
| 2026-04-27 19:11 | 47.31814 | 10.80243 | 38137 ft | 398 kts | 318° |
| 2026-04-27 19:11 | 47.36098 | 10.75070 | 38137 ft | 399 kts | 318° |
| 2026-04-27 19:12 | 47.40431 | 10.69949 | 38140 ft | 399 kts | 320° |
| 2026-04-27 19:12 | 47.44996 | 10.65250 | 38144 ft | 401 kts | 323° |
| 2026-04-27 19:13 | 47.49638 | 10.60684 | 38153 ft | 401 kts | 323° |
| 2026-04-27 19:13 | 47.54252 | 10.56048 | 38177 ft | 400 kts | 322° |
| 2026-04-27 19:14 | 47.58831 | 10.51349 | 38176 ft | 400 kts | 322° |
| 2026-04-27 19:14 | 47.63388 | 10.46611 | 38172 ft | 400 kts | 321° |
| 2026-04-27 19:15 | 47.67915 | 10.41900 | 38179 ft | 400 kts | 322° |
| 2026-04-27 19:15 | 47.72474 | 10.37161 | 38176 ft | 400 kts | 322° |
| 2026-04-27 19:16 | 47.76958 | 10.32289 | 38191 ft | 399 kts | 318° |
| 2026-04-27 19:16 | 47.81231 | 10.27033 | 38181 ft | 398 kts | 316° |
| 2026-04-27 19:17 | 47.85446 | 10.21697 | 38161 ft | 398 kts | 317° |
| 2026-04-27 19:17 | 47.89692 | 10.16411 | 38153 ft | 398 kts | 317° |
| 2026-04-27 19:18 | 47.93966 | 10.11155 | 38152 ft | 398 kts | 317° |
| 2026-04-27 19:18 | 47.98240 | 10.05899 | 38153 ft | 398 kts | 317° |
| 2026-04-27 19:19 | 48.02504 | 10.00623 | 38172 ft | 398 kts | 317° |
| 2026-04-27 19:19 | 48.06766 | 9.95336 | 38162 ft | 399 kts | 317° |
| 2026-04-27 19:20 | 48.11032 | 9.90031 | 38152 ft | 399 kts | 317° |
| 2026-04-27 19:20 | 48.15292 | 9.84718 | 38142 ft | 399 kts | 317° |
| 2026-04-27 19:21 | 48.19527 | 9.79423 | 38138 ft | 399 kts | 317° |
| 2026-04-27 19:21 | 48.23790 | 9.74083 | 38140 ft | 400 kts | 317° |
| 2026-04-27 19:22 | 48.28059 | 9.68732 | 38157 ft | 400 kts | 317° |
| 2026-04-27 19:22 | 48.32331 | 9.63368 | 38152 ft | 400 kts | 316° |
| 2026-04-27 19:23 | 48.36601 | 9.57984 | 38158 ft | 401 kts | 316° |
| 2026-04-27 19:23 | 48.40866 | 9.52591 | 38159 ft | 401 kts | 316° |
| 2026-04-27 19:24 | 48.45132 | 9.47183 | 38157 ft | 401 kts | 316° |
| 2026-04-27 19:24 | 48.49404 | 9.41768 | 38157 ft | 401 kts | 316° |
| 2026-04-27 19:25 | 48.53676 | 9.36349 | 38150 ft | 401 kts | 316° |
| 2026-04-27 19:25 | 48.57937 | 9.30911 | 38145 ft | 401 kts | 316° |
| 2026-04-27 19:26 | 48.62143 | 9.25379 | 38138 ft | 399 kts | 310° |
| 2026-04-27 19:26 | 48.65833 | 9.19139 | 38139 ft | 398 kts | 309° |
| 2026-04-27 19:27 | 48.69512 | 9.12870 | 38140 ft | 399 kts | 308° |
| 2026-04-27 19:27 | 48.73188 | 9.06587 | 38166 ft | 398 kts | 309° |
| 2026-04-27 19:28 | 48.76867 | 9.00299 | 38156 ft | 399 kts | 308° |
| 2026-04-27 19:28 | 48.80540 | 8.94002 | 38152 ft | 399 kts | 308° |
| 2026-04-27 19:29 | 48.84212 | 8.87690 | 38153 ft | 399 kts | 308° |
| 2026-04-27 19:29 | 48.87882 | 8.81369 | 38157 ft | 399 kts | 308° |
| 2026-04-27 19:30 | 48.91551 | 8.75023 | 38159 ft | 399 kts | 308° |
| 2026-04-27 19:30 | 48.95211 | 8.68665 | 38161 ft | 399 kts | 308° |
| 2026-04-27 19:31 | 48.98878 | 8.62307 | 38180 ft | 400 kts | 308° |
| 2026-04-27 19:31 | 49.02549 | 8.55951 | 38171 ft | 400 kts | 308° |
| 2026-04-27 19:32 | 49.06208 | 8.49573 | 38166 ft | 400 kts | 308° |
| 2026-04-27 19:32 | 49.09856 | 8.43177 | 38161 ft | 400 kts | 308° |
| 2026-04-27 19:33 | 49.13505 | 8.36778 | 38158 ft | 400 kts | 308° |
| 2026-04-27 19:33 | 49.17155 | 8.30370 | 38164 ft | 400 kts | 308° |
| 2026-04-27 19:34 | 49.20800 | 8.23955 | 38157 ft | 399 kts | 308° |
| 2026-04-27 19:34 | 49.24413 | 8.17573 | 38193 ft | 399 kts | 308° |
| 2026-04-27 19:35 | 49.28066 | 8.11105 | 38173 ft | 399 kts | 307° |
| 2026-04-27 19:35 | 49.31690 | 8.04674 | 38161 ft | 399 kts | 307° |
| 2026-04-27 19:36 | 49.35304 | 7.98226 | 38157 ft | 399 kts | 307° |
| 2026-04-27 19:36 | 49.38915 | 7.91767 | 38157 ft | 399 kts | 307° |
| 2026-04-27 19:37 | 49.42528 | 7.85308 | 38148 ft | 399 kts | 307° |
| 2026-04-27 19:37 | 49.46135 | 7.78836 | 38147 ft | 399 kts | 307° |
| 2026-04-27 19:38 | 49.49742 | 7.72352 | 38166 ft | 399 kts | 307° |
| 2026-04-27 19:38 | 49.53355 | 7.65862 | 38159 ft | 399 kts | 307° |
| 2026-04-27 19:39 | 49.56936 | 7.59402 | 38156 ft | 399 kts | 307° |
| 2026-04-27 19:39 | 49.60528 | 7.52877 | 38157 ft | 399 kts | 307° |
| 2026-04-27 19:40 | 49.64124 | 7.46347 | 38175 ft | 399 kts | 307° |
| 2026-04-27 19:40 | 49.67726 | 7.39805 | 38176 ft | 399 kts | 307° |
| 2026-04-27 19:41 | 49.71318 | 7.33256 | 38171 ft | 399 kts | 307° |
| 2026-04-27 19:41 | 49.74906 | 7.26704 | 38204 ft | 399 kts | 307° |
| 2026-04-27 19:42 | 49.78486 | 7.20136 | 38184 ft | 399 kts | 307° |
| 2026-04-27 19:42 | 49.82068 | 7.13556 | 38182 ft | 400 kts | 307° |
| 2026-04-27 19:43 | 49.85644 | 7.06962 | 38176 ft | 400 kts | 307° |
| 2026-04-27 19:43 | 49.89216 | 7.00360 | 38176 ft | 400 kts | 307° |
| 2026-04-27 19:44 | 49.92788 | 6.93748 | 38160 ft | 400 kts | 307° |
| 2026-04-27 19:44 | 49.96357 | 6.87131 | 38156 ft | 400 kts | 307° |
| 2026-04-27 19:45 | 49.99922 | 6.80500 | 38186 ft | 400 kts | 307° |
| 2026-04-27 19:45 | 50.03483 | 6.73850 | 38169 ft | 400 kts | 307° |
| 2026-04-27 19:46 | 50.07043 | 6.67190 | 38161 ft | 400 kts | 307° |
| 2026-04-27 19:46 | 50.10604 | 6.60516 | 38159 ft | 401 kts | 307° |
| 2026-04-27 19:47 | 50.14159 | 6.53836 | 38156 ft | 401 kts | 307° |
| 2026-04-27 19:47 | 50.17713 | 6.47137 | 38169 ft | 401 kts | 306° |
| 2026-04-27 19:48 | 50.20605 | 6.39786 | 38153 ft | 397 kts | 296° |
| 2026-04-27 19:48 | 50.23263 | 6.32203 | 38152 ft | 399 kts | 297° |
| 2026-04-27 19:49 | 50.25936 | 6.24605 | 38184 ft | 399 kts | 297° |
| 2026-04-27 19:49 | 50.28587 | 6.17030 | 38171 ft | 400 kts | 296° |
| 2026-04-27 19:50 | 50.31463 | 6.09577 | 38170 ft | 401 kts | 301° |
| 2026-04-27 19:50 | 50.34566 | 6.02304 | 38182 ft | 402 kts | 301° |
| 2026-04-27 19:51 | 50.37672 | 5.95018 | 38191 ft | 402 kts | 301° |
| 2026-04-27 19:51 | 50.40270 | 5.88915 | 38194 ft | 402 kts | 301° |
| 2026-04-27 19:52 | 50.43342 | 5.81663 | 38198 ft | 402 kts | 301° |
| 2026-04-27 19:52 | 50.46423 | 5.74348 | 38203 ft | 402 kts | 301° |
| 2026-04-27 19:53 | 50.51043 | 5.63369 | 38200 ft | 402 kts | 301° |
| 2026-04-27 19:53 | 50.54021 | 5.55943 | 38206 ft | 401 kts | 298° |
| 2026-04-27 19:54 | 50.56846 | 5.48368 | 38196 ft | 402 kts | 298° |
| 2026-04-27 19:54 | 50.59666 | 5.40770 | 38192 ft | 402 kts | 298° |
| 2026-04-27 19:55 | 50.62517 | 5.33186 | 38185 ft | 403 kts | 298° |
| 2026-04-27 19:55 | 50.65380 | 5.25585 | 38190 ft | 403 kts | 298° |
| 2026-04-27 19:56 | 50.68238 | 5.17975 | 38195 ft | 403 kts | 298° |
| 2026-04-27 19:56 | 50.71094 | 5.10354 | 38191 ft | 404 kts | 298° |
| 2026-04-27 19:57 | 50.73948 | 5.02712 | 38190 ft | 404 kts | 298° |
| 2026-04-27 19:57 | 50.76797 | 4.95048 | 38194 ft | 405 kts | 298° |
| 2026-04-27 19:58 | 50.79643 | 4.87358 | 38206 ft | 406 kts | 298° |
| 2026-04-27 19:58 | 50.82491 | 4.79643 | 38200 ft | 406 kts | 298° |
| 2026-04-27 19:59 | 50.85346 | 4.71910 | 38202 ft | 407 kts | 298° |
| 2026-04-27 19:59 | 50.88197 | 4.64166 | 38190 ft | 408 kts | 298° |
| 2026-04-27 20:00 | 50.91041 | 4.56381 | 38188 ft | 409 kts | 298° |
| 2026-04-27 20:00 | 50.93890 | 4.48579 | 38194 ft | 409 kts | 298° |
| 2026-04-27 20:01 | 50.96723 | 4.40807 | 38202 ft | 410 kts | 298° |
| 2026-04-27 20:01 | 50.99568 | 4.32971 | 38208 ft | 410 kts | 298° |
| 2026-04-27 20:02 | 51.02407 | 4.25129 | 38212 ft | 410 kts | 298° |
| 2026-04-27 20:02 | 51.05247 | 4.17270 | 38228 ft | 410 kts | 298° |
| 2026-04-27 20:03 | 51.08078 | 4.09410 | 38230 ft | 410 kts | 298° |
| 2026-04-27 20:03 | 51.10899 | 4.01531 | 38233 ft | 410 kts | 298° |
| 2026-04-27 20:04 | 51.13715 | 3.93639 | 38231 ft | 410 kts | 298° |
| 2026-04-27 20:04 | 51.16527 | 3.85738 | 38231 ft | 410 kts | 298° |
| 2026-04-27 20:05 | 51.19333 | 3.77831 | 38217 ft | 410 kts | 298° |
| 2026-04-27 20:05 | 51.22140 | 3.69907 | 38220 ft | 410 kts | 298° |
| 2026-04-27 20:06 | 51.24181 | 3.61473 | 38226 ft | 409 kts | 282° |
| 2026-04-27 20:06 | 51.25346 | 3.52589 | 38226 ft | 409 kts | 282° |
| 2026-04-27 20:07 | 51.26526 | 3.43693 | 38223 ft | 409 kts | 282° |
| 2026-04-27 20:07 | 51.27697 | 3.34798 | 38230 ft | 409 kts | 282° |
| 2026-04-27 20:08 | 51.28849 | 3.25891 | 38234 ft | 410 kts | 282° |
| 2026-04-27 20:08 | 51.29984 | 3.16949 | 38234 ft | 411 kts | 282° |
| 2026-04-27 20:09 | 51.31117 | 3.07991 | 38220 ft | 412 kts | 282° |
| 2026-04-27 20:09 | 51.32252 | 2.99005 | 38217 ft | 413 kts | 282° |
| 2026-04-27 20:10 | 51.33378 | 2.90067 | 38227 ft | 413 kts | 282° |
| 2026-04-27 20:10 | 51.34501 | 2.81058 | 38231 ft | 413 kts | 282° |
| 2026-04-27 20:11 | 51.35611 | 2.72036 | 38234 ft | 414 kts | 282° |
| 2026-04-27 20:11 | 51.36722 | 2.63001 | 38245 ft | 414 kts | 282° |
| 2026-04-27 20:12 | 51.37836 | 2.53968 | 38243 ft | 414 kts | 282° |
| 2026-04-27 20:12 | 51.38944 | 2.44922 | 38246 ft | 414 kts | 282° |
| 2026-04-27 20:13 | 51.40037 | 2.35865 | 38264 ft | 414 kts | 282° |
| 2026-04-27 20:13 | 51.41113 | 2.26809 | 38277 ft | 413 kts | 282° |
| 2026-04-27 20:14 | 51.42204 | 2.17783 | 38281 ft | 412 kts | 283° |
| 2026-04-27 20:14 | 51.43309 | 2.08778 | 38283 ft | 412 kts | 283° |
| 2026-04-27 20:15 | 51.44402 | 1.99773 | 38281 ft | 411 kts | 283° |
| 2026-04-27 20:15 | 51.45469 | 1.90768 | 38273 ft | 411 kts | 282° |
| 2026-04-27 20:16 | 51.46519 | 1.81761 | 38285 ft | 411 kts | 282° |
| 2026-04-27 20:16 | 51.47563 | 1.72769 | 38287 ft | 410 kts | 282° |
| 2026-04-27 20:17 | 51.48595 | 1.63777 | 38290 ft | 409 kts | 282° |
| 2026-04-27 20:17 | 51.49444 | 1.56314 | 38288 ft | 409 kts | 282° |
| 2026-04-27 20:18 | 51.50633 | 1.45818 | 38289 ft | 409 kts | 282° |
| 2026-04-27 20:18 | 51.51644 | 1.36829 | 38265 ft | 410 kts | 282° |
| 2026-04-27 20:19 | 51.52650 | 1.27817 | 38271 ft | 412 kts | 282° |
| 2026-04-27 20:19 | 51.53649 | 1.18751 | 38283 ft | 412 kts | 282° |
| 2026-04-27 20:20 | 51.54157 | 1.09570 | 38287 ft | 415 kts | 271° |
| 2026-04-27 20:20 | 51.54036 | 1.00305 | 38287 ft | 415 kts | 271° |
| 2026-04-27 20:21 | 51.53921 | 0.91039 | 38277 ft | 415 kts | 272° |
| 2026-04-27 20:21 | 51.53800 | 0.81778 | 38281 ft | 415 kts | 272° |
| 2026-04-27 20:22 | 51.53667 | 0.72569 | 38283 ft | 415 kts | 272° |
| 2026-04-27 20:22 | 51.53525 | 0.63310 | 38285 ft | 415 kts | 271° |
| 2026-04-27 20:23 | 51.53376 | 0.54046 | 38287 ft | 415 kts | 271° |
| 2026-04-27 20:23 | 51.53213 | 0.44779 | 38280 ft | 415 kts | 272° |
| 2026-04-27 20:24 | 51.53078 | 0.35518 | 38280 ft | 414 kts | 272° |
| 2026-04-27 20:24 | 51.53103 | 0.26278 | 38288 ft | 413 kts | 274° |
| 2026-04-27 20:25 | 51.53184 | 0.17051 | 38293 ft | 413 kts | 274° |
| 2026-04-27 20:25 | 51.53210 | 0.07809 | 38292 ft | 413 kts | 273° |
| 2026-04-27 20:26 | 51.53205 | -0.01429 | 38284 ft | 414 kts | 273° |
| 2026-04-27 20:26 | 51.53202 | -0.10685 | 37284 ft | 421 kts | 273° |
| 2026-04-27 20:27 | 51.53203 | -0.15439 | 36431 ft | 426 kts | 273° |
| 2026-04-27 20:27 | 51.53198 | -0.20136 | 36166 ft | 417 kts | 273° |
| 2026-04-27 20:27 | 51.53189 | -0.24771 | 35689 ft | 413 kts | 274° |
| 2026-04-27 20:27 | 51.53180 | -0.29365 | 35213 ft | 410 kts | 274° |
| 2026-04-27 20:28 | 51.53170 | -0.33920 | 34729 ft | 407 kts | 274° |
| 2026-04-27 20:28 | 51.53160 | -0.38454 | 34241 ft | 405 kts | 274° |
| 2026-04-27 20:28 | 51.53148 | -0.42958 | 33724 ft | 401 kts | 274° |
| 2026-04-27 20:28 | 51.53139 | -0.45909 | 33420 ft | 398 kts | 274° |
| 2026-04-27 20:29 | 51.53116 | -0.51818 | 32793 ft | 393 kts | 274° |
| 2026-04-27 20:29 | 51.53097 | -0.56183 | 32329 ft | 389 kts | 274° |
| 2026-04-27 20:29 | 51.53076 | -0.60503 | 31876 ft | 385 kts | 274° |
| 2026-04-27 20:29 | 51.53057 | -0.64774 | 31431 ft | 381 kts | 275° |
| 2026-04-27 20:30 | 51.53037 | -0.69008 | 30995 ft | 377 kts | 275° |
| 2026-04-27 20:30 | 51.53015 | -0.73193 | 30565 ft | 373 kts | 275° |
| 2026-04-27 20:30 | 51.52992 | -0.77342 | 30114 ft | 370 kts | 275° |
| 2026-04-27 20:30 | 51.52966 | -0.81435 | 29686 ft | 364 kts | 275° |
| 2026-04-27 20:31 | 51.52936 | -0.85482 | 29282 ft | 360 kts | 275° |
| 2026-04-27 20:31 | 51.52905 | -0.89472 | 28891 ft | 356 kts | 275° |
| 2026-04-27 20:31 | 51.52873 | -0.93422 | 28507 ft | 352 kts | 275° |
| 2026-04-27 20:31 | 51.52842 | -0.97324 | 28093 ft | 348 kts | 276° |
| 2026-04-27 20:32 | 51.52810 | -1.01179 | 27758 ft | 342 kts | 277° |
| 2026-04-27 20:32 | 51.52779 | -1.04923 | 27394 ft | 338 kts | 277° |
| 2026-04-27 20:32 | 51.52747 | -1.08678 | 27025 ft | 334 kts | 277° |
| 2026-04-27 20:32 | 51.52714 | -1.12381 | 26657 ft | 330 kts | 277° |
| 2026-04-27 20:33 | 51.52735 | -1.16037 | 26292 ft | 322 kts | 283° |
| 2026-04-27 20:33 | 51.53076 | -1.19551 | 25994 ft | 323 kts | 289° |
| 2026-04-27 20:33 | 51.53532 | -1.23167 | 25686 ft | 335 kts | 288° |
| 2026-04-27 20:33 | 51.53978 | -1.26855 | 25369 ft | 337 kts | 288° |
| 2026-04-27 20:34 | 51.54411 | -1.30547 | 25053 ft | 336 kts | 288° |
| 2026-04-27 20:34 | 51.54835 | -1.34236 | 24732 ft | 335 kts | 288° |
| 2026-04-27 20:34 | 51.55256 | -1.37914 | 24428 ft | 334 kts | 288° |
| 2026-04-27 20:34 | 51.55679 | -1.41573 | 24115 ft | 332 kts | 288° |
| 2026-04-27 20:35 | 51.56103 | -1.45211 | 23765 ft | 331 kts | 289° |
| 2026-04-27 20:35 | 51.56528 | -1.48848 | 23497 ft | 331 kts | 289° |
| 2026-04-27 20:35 | 51.56952 | -1.52484 | 23163 ft | 330 kts | 289° |
| 2026-04-27 20:35 | 51.57371 | -1.56095 | 22857 ft | 328 kts | 288° |
| 2026-04-27 20:36 | 51.57786 | -1.59693 | 22540 ft | 327 kts | 288° |
| 2026-04-27 20:36 | 51.58200 | -1.63278 | 22232 ft | 325 kts | 288° |
| 2026-04-27 20:36 | 51.58593 | -1.66853 | 21928 ft | 325 kts | 286° |
| 2026-04-27 20:36 | 51.58810 | -1.69277 | 21722 ft | 325 kts | 285° |
| 2026-04-27 20:37 | 51.59082 | -1.72874 | 21416 ft | 324 kts | 283° |
| 2026-04-27 20:37 | 51.59324 | -1.76469 | 21112 ft | 322 kts | 283° |
| 2026-04-27 20:37 | 51.59557 | -1.80045 | 20809 ft | 321 kts | 282° |
| 2026-04-27 20:37 | 51.59791 | -1.83599 | 20506 ft | 319 kts | 282° |
| 2026-04-27 20:38 | 51.60032 | -1.87136 | 20207 ft | 317 kts | 282° |
| 2026-04-27 20:38 | 51.60273 | -1.90614 | 19907 ft | 315 kts | 282° |
| 2026-04-27 20:38 | 51.60519 | -1.94107 | 19585 ft | 314 kts | 282° |
| 2026-04-27 20:38 | 51.60768 | -1.97607 | 19314 ft | 315 kts | 282° |
| 2026-04-27 20:39 | 51.60948 | -2.01119 | 19022 ft | 318 kts | 275° |
| 2026-04-27 20:39 | 51.60654 | -2.04668 | 18717 ft | 324 kts | 261° |
| 2026-04-27 20:39 | 51.59802 | -2.08052 | 18378 ft | 331 kts | 246° |
| 2026-04-27 20:39 | 51.58446 | -2.11072 | 18063 ft | 335 kts | 237° |
| 2026-04-27 20:40 | 51.56986 | -2.13979 | 17761 ft | 333 kts | 237° |
| 2026-04-27 20:40 | 51.55536 | -2.16878 | 17432 ft | 332 kts | 237° |
| 2026-04-27 20:40 | 51.54097 | -2.19764 | 17116 ft | 330 kts | 237° |
| 2026-04-27 20:40 | 51.52668 | -2.22632 | 16809 ft | 328 kts | 237° |
| 2026-04-27 20:41 | 51.51247 | -2.25486 | 16499 ft | 327 kts | 237° |
| 2026-04-27 20:41 | 51.49828 | -2.28324 | 16191 ft | 325 kts | 237° |
| 2026-04-27 20:41 | 51.48417 | -2.31143 | 15890 ft | 323 kts | 237° |
| 2026-04-27 20:41 | 51.47010 | -2.33945 | 15587 ft | 322 kts | 237° |
| 2026-04-27 20:42 | 51.45611 | -2.36730 | 15286 ft | 320 kts | 237° |
| 2026-04-27 20:42 | 51.44216 | -2.39503 | 14987 ft | 319 kts | 237° |
| 2026-04-27 20:42 | 51.42825 | -2.42263 | 14683 ft | 318 kts | 237° |
| 2026-04-27 20:42 | 51.41535 | -2.45099 | 14387 ft | 311 kts | 246° |
| 2026-04-27 20:43 | 51.40656 | -2.48202 | 14093 ft | 302 kts | 258° |
| 2026-04-27 20:43 | 51.40205 | -2.51442 | 13802 ft | 296 kts | 266° |
| 2026-04-27 20:43 | 51.39888 | -2.54687 | 13483 ft | 294 kts | 266° |
| 2026-04-27 20:43 | 51.39563 | -2.57916 | 13118 ft | 293 kts | 265° |
| 2026-04-27 20:44 | 51.39231 | -2.61130 | 12752 ft | 292 kts | 265° |
| 2026-04-27 20:44 | 51.38896 | -2.64331 | 12363 ft | 291 kts | 265° |
| 2026-04-27 20:44 | 51.38563 | -2.67517 | 11971 ft | 290 kts | 265° |
| 2026-04-27 20:44 | 51.38237 | -2.70693 | 11628 ft | 287 kts | 266° |
| 2026-04-27 20:45 | 51.38169 | -2.73837 | 11313 ft | 281 kts | 276° |
| 2026-04-27 20:45 | 51.38243 | -2.76956 | 10951 ft | 280 kts | 276° |
| 2026-04-27 20:45 | 51.38313 | -2.80061 | 10602 ft | 279 kts | 275° |
| 2026-04-27 20:45 | 51.38379 | -2.83162 | 10219 ft | 278 kts | 275° |
| 2026-04-27 20:46 | 51.38443 | -2.86256 | 9816 ft | 278 kts | 275° |
| 2026-04-27 20:46 | 51.38506 | -2.89345 | 9378 ft | 278 kts | 275° |
| 2026-04-27 20:46 | 51.38569 | -2.92434 | 8959 ft | 277 kts | 275° |
| 2026-04-27 20:46 | 51.38630 | -2.95507 | 8578 ft | 275 kts | 275° |
| 2026-04-27 20:47 | 51.38689 | -2.98558 | 8207 ft | 273 kts | 274° |
| 2026-04-27 20:47 | 51.38748 | -3.01584 | 7818 ft | 271 kts | 275° |
| 2026-04-27 20:47 | 51.38807 | -3.04581 | 7463 ft | 268 kts | 274° |
| 2026-04-27 20:47 | 51.38865 | -3.07553 | 7104 ft | 265 kts | 274° |
| 2026-04-27 20:48 | 51.38919 | -3.10494 | 6723 ft | 264 kts | 272° |
| 2026-04-27 20:48 | 51.38974 | -3.13432 | 6263 ft | 265 kts | 273° |
| 2026-04-27 20:48 | 51.39027 | -3.16335 | 5834 ft | 264 kts | 272° |
| 2026-04-27 20:48 | 51.39079 | -3.19272 | 5375 ft | 265 kts | 272° |
| 2026-04-27 20:49 | 51.39129 | -3.22221 | 4914 ft | 265 kts | 272° |
| 2026-04-27 20:49 | 51.39178 | -3.25153 | 4616 ft | 259 kts | 273° |
| 2026-04-27 20:49 | 51.39222 | -3.27968 | 4483 ft | 247 kts | 273° |
| 2026-04-27 20:49 | 51.39264 | -3.30642 | 4340 ft | 232 kts | 275° |
| 2026-04-27 20:50 | 51.39375 | -3.33147 | 4045 ft | 222 kts | 286° |
| 2026-04-27 20:50 | 51.39855 | -3.35457 | 3576 ft | 218 kts | 300° |
| 2026-04-27 20:50 | 51.40563 | -3.37612 | 3110 ft | 218 kts | 302° |
| 2026-04-27 20:50 | 51.41248 | -3.39723 | 2924 ft | 208 kts | 302° |
| 2026-04-27 20:51 | 51.41903 | -3.41755 | 2788 ft | 203 kts | 302° |
| 2026-04-27 20:51 | 51.42545 | -3.43747 | 2660 ft | 200 kts | 302° |
| 2026-04-27 20:51 | 51.43180 | -3.45722 | 2529 ft | 199 kts | 302° |
| 2026-04-27 20:51 | 51.43811 | -3.47688 | 2405 ft | 198 kts | 302° |
| 2026-04-27 20:52 | 51.44441 | -3.49646 | 2299 ft | 197 kts | 302° |
| 2026-04-27 20:52 | 51.45042 | -3.51629 | 2206 ft | 199 kts | 293° |
| 2026-04-27 20:52 | 51.44957 | -3.53837 | 2212 ft | 207 kts | 243° |
| 2026-04-27 20:52 | 51.43905 | -3.55323 | 2214 ft | 205 kts | 194° |
| 2026-04-27 20:53 | 51.42559 | -3.55159 | 2212 ft | 194 kts | 145° |
| 2026-04-27 20:53 | 51.41794 | -3.53558 | 2214 ft | 180 kts | 95° |
| 2026-04-27 20:53 | 51.41940 | -3.51732 | 2231 ft | 158 kts | 72° |
| 2026-04-27 20:53 | 51.42335 | -3.50197 | 2196 ft | 142 kts | 49° |
| 2026-04-27 20:54 | 51.44112 | -3.49558 | 2197 ft | 136 kts | 4° |
| 2026-04-27 20:54 | 51.44847 | -3.48843 | 2192 ft | 130 kts | 66° |
| 2026-04-27 20:54 | 51.44632 | -3.47478 | 2197 ft | 141 kts | 133° |
| 2026-04-27 20:55 | 51.43736 | -3.46788 | 2100 ft | 146 kts | 152° |
| 2026-04-27 20:55 | 51.42856 | -3.46017 | 1677 ft | 138 kts | 125° |
| 2026-04-27 20:55 | 51.42638 | -3.44643 | 1502 ft | 127 kts | 93° |
| 2026-04-27 20:55 | 51.42345 | -3.43285 | 1304 ft | 129 kts | 106° |
| 2026-04-27 20:56 | 51.41994 | -3.41971 | 1103 ft | 128 kts | 110° |
| 2026-04-27 20:56 | 51.41618 | -3.40670 | 945 ft | 129 kts | 111° |
| 2026-04-27 20:56 | 51.41227 | -3.39369 | 760 ft | 130 kts | 111° |
| 2026-04-27 20:56 | 51.40833 | -3.38096 | 570 ft | 128 kts | 111° |
| 2026-04-27 20:57 | 51.40441 | -3.36824 | 406 ft | 129 kts | 111° |
| 2026-04-27 20:57 | 51.40042 | -3.35539 | 246 ft | 128 kts | 111° |
| 2026-04-27 20:57 | 51.39667 | -3.34345 | 222 ft | 105 kts | 117° |
| 2026-04-27 20:57 | 51.39401 | -3.33505 | 223 ft | 65 kts | 117° |
| 2026-04-27 20:58 | 51.39250 | -3.33028 | 222 ft | 33 kts | 116° |
| 2026-04-27 20:58 | 51.39215 | -3.32821 | 218 ft | 10 kts | 48° |
| 2026-04-27 20:58 | 51.39265 | -3.32807 | 216 ft | 5 kts | 336° |
| 2026-04-27 20:58 | 51.39292 | -3.32837 | 218 ft | 9 kts | 319° |
| 2026-04-27 20:59 | 51.39331 | -3.32898 | 218 ft | 7 kts | 315° |
| 2026-04-27 20:59 | 51.39366 | -3.32952 | 220 ft | 8 kts | 315° |
| 2026-04-27 20:59 | 51.39419 | -3.33037 | 220 ft | 13 kts | 315° |
| 2026-04-27 20:59 | 51.39478 | -3.33167 | 222 ft | 14 kts | 296° |
| 2026-04-27 21:00 | 51.39524 | -3.33314 | 221 ft | 16 kts | 297° |
| 2026-04-27 21:00 | 51.39577 | -3.33479 | 220 ft | 17 kts | 297° |
| 2026-04-27 21:00 | 51.39633 | -3.33654 | 219 ft | 18 kts | 297° |
| 2026-04-27 21:00 | 51.39687 | -3.33823 | 222 ft | 17 kts | 297° |
| 2026-04-27 21:01 | 51.39743 | -3.33994 | 222 ft | 18 kts | 297° |
| 2026-04-27 21:01 | 51.39797 | -3.34174 | 223 ft | 18 kts | 295° |
| 2026-04-27 21:01 | 51.39874 | -3.34279 | 223 ft | 15 kts | 17° |
| 2026-04-27 21:01 | 51.39924 | -3.34201 | 221 ft | 7 kts | 101° |
| 2026-04-27 21:02 | 51.39913 | -3.34165 | 222 ft | 0 kts | 116° |